sensor_id;sensor_type;location;lat;lon;timestamp;P1;durP1;ratioP1;P2;durP2;ratioP2
12892;SDS011;6514;48.606;9.222;2023-10-19T00:02:06;16.43;;;11.33;;
12892;SDS011;6514;48.606;9.222;2023-10-19T00:04:32;14.57;;;10.60;;
12892;SDS011;6514;48.606;9.222;2023-10-19T00:07:00;13.33;;;11.27;;
12892;SDS011;6514;48.606;9.222;2023-10-19T00:09:29;13.87;;;10.23;;
12892;SDS011;6514;48.606;9.222;2023-10-19T00:12:02;12.17;;;9.67;;
12892;SDS011;6514;48.606;9.222;2023-10-19T00:14:30;13.77;;;10.33;;
12892;SDS011;6514;48.606;9.222;2023-10-19T00:16:57;14.50;;;10.97;;
12892;SDS011;6514;48.606;9.222;2023-10-19T00:19:30;14.40;;;10.57;;
12892;SDS011;6514;48.606;9.222;2023-10-19T00:22:04;10.80;;;9.60;;
12892;SDS011;6514;48.606;9.222;2023-10-19T00:24:34;12.43;;;9.77;;
12892;SDS011;6514;48.606;9.222;2023-10-19T00:27:02;12.67;;;10.30;;
12892;SDS011;6514;48.606;9.222;2023-10-19T00:29:40;12.17;;;9.43;;
12892;SDS011;6514;48.606;9.222;2023-10-19T00:32:13;13.00;;;9.60;;
12892;SDS011;6514;48.606;9.222;2023-10-19T00:34:40;11.10;;;9.40;;
12892;SDS011;6514;48.606;9.222;2023-10-19T00:37:08;11.50;;;9.63;;
12892;SDS011;6514;48.606;9.222;2023-10-19T00:39:35;12.97;;;9.60;;
12892;SDS011;6514;48.606;9.222;2023-10-19T00:42:10;12.83;;;9.47;;
12892;SDS011;6514;48.606;9.222;2023-10-19T00:44:40;11.37;;;9.77;;
12892;SDS011;6514;48.606;9.222;2023-10-19T00:47:08;11.90;;;9.77;;
12892;SDS011;6514;48.606;9.222;2023-10-19T00:49:38;14.53;;;10.70;;
12892;SDS011;6514;48.606;9.222;2023-10-19T00:52:06;12.27;;;9.73;;
12892;SDS011;6514;48.606;9.222;2023-10-19T00:54:38;11.20;;;9.70;;
12892;SDS011;6514;48.606;9.222;2023-10-19T00:57:17;12.00;;;9.90;;
12892;SDS011;6514;48.606;9.222;2023-10-19T00:59:48;9.93;;;8.73;;
12892;SDS011;6514;48.606;9.222;2023-10-19T01:02:19;9.90;;;8.60;;
12892;SDS011;6514;48.606;9.222;2023-10-19T01:04:47;12.33;;;8.53;;
12892;SDS011;6514;48.606;9.222;2023-10-19T01:07:21;10.13;;;8.40;;
12892;SDS011;6514;48.606;9.222;2023-10-19T01:09:53;10.33;;;7.50;;
12892;SDS011;6514;48.606;9.222;2023-10-19T01:12:23;10.77;;;8.03;;
12892;SDS011;6514;48.606;9.222;2023-10-19T01:15:01;11.10;;;8.43;;
12892;SDS011;6514;48.606;9.222;2023-10-19T01:17:42;11.27;;;7.93;;
12892;SDS011;6514;48.606;9.222;2023-10-19T01:20:10;9.87;;;8.47;;
12892;SDS011;6514;48.606;9.222;2023-10-19T01:22:48;11.37;;;7.73;;
12892;SDS011;6514;48.606;9.222;2023-10-19T01:25:18;10.00;;;7.77;;
12892;SDS011;6514;48.606;9.222;2023-10-19T01:27:50;9.80;;;7.70;;
12892;SDS011;6514;48.606;9.222;2023-10-19T01:30:22;10.00;;;8.17;;
12892;SDS011;6514;48.606;9.222;2023-10-19T01:32:52;10.67;;;7.07;;
12892;SDS011;6514;48.606;9.222;2023-10-19T01:35:19;8.73;;;7.10;;
12892;SDS011;6514;48.606;9.222;2023-10-19T01:37:47;9.67;;;7.33;;
12892;SDS011;6514;48.606;9.222;2023-10-19T01:40:13;9.97;;;7.43;;
12892;SDS011;6514;48.606;9.222;2023-10-19T01:42:45;11.77;;;8.40;;
12892;SDS011;6514;48.606;9.222;2023-10-19T01:45:11;9.60;;;8.53;;
12892;SDS011;6514;48.606;9.222;2023-10-19T01:47:39;12.17;;;8.13;;
12892;SDS011;6514;48.606;9.222;2023-10-19T01:50:06;11.17;;;8.07;;
12892;SDS011;6514;48.606;9.222;2023-10-19T01:52:44;11.17;;;8.73;;
12892;SDS011;6514;48.606;9.222;2023-10-19T01:55:12;10.03;;;8.43;;
12892;SDS011;6514;48.606;9.222;2023-10-19T01:57:45;10.00;;;8.20;;
12892;SDS011;6514;48.606;9.222;2023-10-19T02:00:12;10.60;;;8.00;;
12892;SDS011;6514;48.606;9.222;2023-10-19T02:02:48;9.33;;;7.80;;
12892;SDS011;6514;48.606;9.222;2023-10-19T02:05:15;9.93;;;7.93;;
12892;SDS011;6514;48.606;9.222;2023-10-19T02:07:44;7.43;;;6.27;;
12892;SDS011;6514;48.606;9.222;2023-10-19T02:10:10;8.90;;;7.20;;
12892;SDS011;6514;48.606;9.222;2023-10-19T02:12:38;8.50;;;6.43;;
12892;SDS011;6514;48.606;9.222;2023-10-19T02:15:07;7.87;;;6.40;;
12892;SDS011;6514;48.606;9.222;2023-10-19T02:17:34;7.80;;;5.47;;
12892;SDS011;6514;48.606;9.222;2023-10-19T02:20:00;6.87;;;5.33;;
12892;SDS011;6514;48.606;9.222;2023-10-19T02:22:37;5.90;;;4.80;;
12892;SDS011;6514;48.606;9.222;2023-10-19T02:25:03;7.23;;;5.40;;
12892;SDS011;6514;48.606;9.222;2023-10-19T02:27:31;7.40;;;4.57;;
12892;SDS011;6514;48.606;9.222;2023-10-19T02:29:58;6.37;;;5.50;;
12892;SDS011;6514;48.606;9.222;2023-10-19T02:32:26;5.03;;;4.53;;
12892;SDS011;6514;48.606;9.222;2023-10-19T02:34:51;4.77;;;4.27;;
12892;SDS011;6514;48.606;9.222;2023-10-19T02:37:18;5.13;;;4.63;;
12892;SDS011;6514;48.606;9.222;2023-10-19T02:39:44;6.10;;;4.07;;
12892;SDS011;6514;48.606;9.222;2023-10-19T02:42:11;5.40;;;4.00;;
12892;SDS011;6514;48.606;9.222;2023-10-19T02:44:37;6.33;;;4.20;;
12892;SDS011;6514;48.606;9.222;2023-10-19T02:47:05;5.63;;;4.47;;
12892;SDS011;6514;48.606;9.222;2023-10-19T02:49:34;4.50;;;4.10;;
12892;SDS011;6514;48.606;9.222;2023-10-19T02:52:03;7.70;;;4.73;;
12892;SDS011;6514;48.606;9.222;2023-10-19T02:54:29;7.13;;;5.93;;
12892;SDS011;6514;48.606;9.222;2023-10-19T02:56:58;7.03;;;6.13;;
12892;SDS011;6514;48.606;9.222;2023-10-19T02:59:24;6.80;;;5.90;;
12892;SDS011;6514;48.606;9.222;2023-10-19T03:01:54;7.67;;;5.13;;
12892;SDS011;6514;48.606;9.222;2023-10-19T03:04:27;7.17;;;5.43;;
12892;SDS011;6514;48.606;9.222;2023-10-19T03:06:54;6.07;;;5.47;;
12892;SDS011;6514;48.606;9.222;2023-10-19T03:09:21;9.17;;;5.63;;
12892;SDS011;6514;48.606;9.222;2023-10-19T03:11:54;6.60;;;5.50;;
12892;SDS011;6514;48.606;9.222;2023-10-19T03:14:20;5.87;;;5.10;;
12892;SDS011;6514;48.606;9.222;2023-10-19T03:16:50;6.80;;;4.77;;
12892;SDS011;6514;48.606;9.222;2023-10-19T03:19:16;5.67;;;4.33;;
12892;SDS011;6514;48.606;9.222;2023-10-19T03:21:44;4.03;;;3.63;;
12892;SDS011;6514;48.606;9.222;2023-10-19T03:24:14;7.33;;;3.87;;
12892;SDS011;6514;48.606;9.222;2023-10-19T03:26:48;6.40;;;3.70;;
12892;SDS011;6514;48.606;9.222;2023-10-19T03:29:14;3.87;;;3.17;;
12892;SDS011;6514;48.606;9.222;2023-10-19T03:31:43;4.93;;;3.67;;
12892;SDS011;6514;48.606;9.222;2023-10-19T03:34:10;4.00;;;3.37;;
12892;SDS011;6514;48.606;9.222;2023-10-19T03:36:39;3.30;;;3.00;;
12892;SDS011;6514;48.606;9.222;2023-10-19T03:39:08;4.63;;;3.37;;
12892;SDS011;6514;48.606;9.222;2023-10-19T03:41:38;4.33;;;3.30;;
12892;SDS011;6514;48.606;9.222;2023-10-19T03:44:07;3.27;;;2.97;;
12892;SDS011;6514;48.606;9.222;2023-10-19T03:46:38;4.67;;;3.23;;
12892;SDS011;6514;48.606;9.222;2023-10-19T03:49:17;4.70;;;3.17;;
12892;SDS011;6514;48.606;9.222;2023-10-19T03:51:45;8.07;;;4.20;;
12892;SDS011;6514;48.606;9.222;2023-10-19T03:54:26;7.77;;;4.03;;
12892;SDS011;6514;48.606;9.222;2023-10-19T03:56:53;4.87;;;3.77;;
12892;SDS011;6514;48.606;9.222;2023-10-19T03:59:22;6.50;;;3.83;;
12892;SDS011;6514;48.606;9.222;2023-10-19T04:01:54;6.90;;;5.20;;
12892;SDS011;6514;48.606;9.222;2023-10-19T04:04:21;5.10;;;4.20;;
12892;SDS011;6514;48.606;9.222;2023-10-19T04:06:48;5.77;;;4.37;;
12892;SDS011;6514;48.606;9.222;2023-10-19T04:09:22;12.60;;;7.67;;
12892;SDS011;6514;48.606;9.222;2023-10-19T04:11:54;9.40;;;6.60;;
12892;SDS011;6514;48.606;9.222;2023-10-19T04:14:22;12.13;;;7.97;;
12892;SDS011;6514;48.606;9.222;2023-10-19T04:16:49;16.43;;;9.57;;
12892;SDS011;6514;48.606;9.222;2023-10-19T04:19:17;19.47;;;11.33;;
12892;SDS011;6514;48.606;9.222;2023-10-19T04:21:43;25.43;;;12.43;;
12892;SDS011;6514;48.606;9.222;2023-10-19T04:24:11;33.97;;;16.70;;
12892;SDS011;6514;48.606;9.222;2023-10-19T04:26:39;33.87;;;18.00;;
12892;SDS011;6514;48.606;9.222;2023-10-19T04:29:09;54.40;;;27.93;;
12892;SDS011;6514;48.606;9.222;2023-10-19T04:31:36;40.47;;;22.17;;
12892;SDS011;6514;48.606;9.222;2023-10-19T04:34:06;45.07;;;25.83;;
12892;SDS011;6514;48.606;9.222;2023-10-19T04:36:35;23.97;;;16.13;;
12892;SDS011;6514;48.606;9.222;2023-10-19T04:39:04;18.60;;;13.40;;
12892;SDS011;6514;48.606;9.222;2023-10-19T04:41:36;22.17;;;15.77;;
12892;SDS011;6514;48.606;9.222;2023-10-19T04:44:04;20.93;;;14.13;;
12892;SDS011;6514;48.606;9.222;2023-10-19T04:46:34;24.07;;;14.80;;
12892;SDS011;6514;48.606;9.222;2023-10-19T04:49:01;14.37;;;11.77;;
12892;SDS011;6514;48.606;9.222;2023-10-19T04:51:28;11.13;;;8.80;;
12892;SDS011;6514;48.606;9.222;2023-10-19T04:53:55;12.03;;;8.97;;
12892;SDS011;6514;48.606;9.222;2023-10-19T04:56:22;10.33;;;8.37;;
12892;SDS011;6514;48.606;9.222;2023-10-19T04:58:49;11.47;;;8.37;;
12892;SDS011;6514;48.606;9.222;2023-10-19T05:01:15;10.67;;;9.27;;
12892;SDS011;6514;48.606;9.222;2023-10-19T05:03:44;9.97;;;7.20;;
12892;SDS011;6514;48.606;9.222;2023-10-19T05:06:10;8.73;;;7.10;;
12892;SDS011;6514;48.606;9.222;2023-10-19T05:08:37;9.10;;;7.30;;
12892;SDS011;6514;48.606;9.222;2023-10-19T05:11:05;8.67;;;6.83;;
12892;SDS011;6514;48.606;9.222;2023-10-19T05:13:33;9.27;;;8.00;;
12892;SDS011;6514;48.606;9.222;2023-10-19T05:16:01;9.43;;;7.40;;
12892;SDS011;6514;48.606;9.222;2023-10-19T05:18:28;9.27;;;7.57;;
12892;SDS011;6514;48.606;9.222;2023-10-19T05:20:56;9.03;;;7.67;;
12892;SDS011;6514;48.606;9.222;2023-10-19T05:23:24;10.17;;;7.43;;
12892;SDS011;6514;48.606;9.222;2023-10-19T05:25:52;10.23;;;8.00;;
12892;SDS011;6514;48.606;9.222;2023-10-19T05:28:19;7.90;;;7.10;;
12892;SDS011;6514;48.606;9.222;2023-10-19T05:30:46;8.27;;;7.17;;
12892;SDS011;6514;48.606;9.222;2023-10-19T05:33:14;8.27;;;7.13;;
12892;SDS011;6514;48.606;9.222;2023-10-19T05:35:41;10.97;;;7.67;;
12892;SDS011;6514;48.606;9.222;2023-10-19T05:38:12;9.77;;;7.70;;
12892;SDS011;6514;48.606;9.222;2023-10-19T05:40:39;7.77;;;6.97;;
12892;SDS011;6514;48.606;9.222;2023-10-19T05:43:11;12.07;;;7.80;;
12892;SDS011;6514;48.606;9.222;2023-10-19T05:45:38;9.47;;;7.87;;
12892;SDS011;6514;48.606;9.222;2023-10-19T05:48:05;11.13;;;7.43;;
12892;SDS011;6514;48.606;9.222;2023-10-19T05:50:32;9.83;;;7.43;;
12892;SDS011;6514;48.606;9.222;2023-10-19T05:52:59;12.57;;;7.90;;
12892;SDS011;6514;48.606;9.222;2023-10-19T05:55:28;9.53;;;7.77;;
12892;SDS011;6514;48.606;9.222;2023-10-19T05:57:56;9.93;;;7.50;;
12892;SDS011;6514;48.606;9.222;2023-10-19T06:00:23;11.20;;;7.97;;
12892;SDS011;6514;48.606;9.222;2023-10-19T06:02:51;9.83;;;7.80;;
12892;SDS011;6514;48.606;9.222;2023-10-19T06:05:19;12.63;;;8.30;;
12892;SDS011;6514;48.606;9.222;2023-10-19T06:07:46;14.67;;;10.30;;
12892;SDS011;6514;48.606;9.222;2023-10-19T06:10:15;14.17;;;11.43;;
12892;SDS011;6514;48.606;9.222;2023-10-19T06:12:44;10.33;;;8.87;;
12892;SDS011;6514;48.606;9.222;2023-10-19T06:15:12;11.60;;;9.00;;
12892;SDS011;6514;48.606;9.222;2023-10-19T06:17:40;11.17;;;9.03;;
12892;SDS011;6514;48.606;9.222;2023-10-19T06:20:09;10.93;;;8.33;;
12892;SDS011;6514;48.606;9.222;2023-10-19T06:22:45;11.60;;;8.67;;
12892;SDS011;6514;48.606;9.222;2023-10-19T06:25:16;9.37;;;7.63;;
12892;SDS011;6514;48.606;9.222;2023-10-19T06:27:45;10.43;;;7.33;;
12892;SDS011;6514;48.606;9.222;2023-10-19T06:30:13;9.50;;;7.47;;
12892;SDS011;6514;48.606;9.222;2023-10-19T06:32:44;8.60;;;7.20;;
12892;SDS011;6514;48.606;9.222;2023-10-19T06:35:14;7.23;;;6.43;;
12892;SDS011;6514;48.606;9.222;2023-10-19T06:37:41;7.93;;;6.17;;
12892;SDS011;6514;48.606;9.222;2023-10-19T06:40:09;9.20;;;7.40;;
12892;SDS011;6514;48.606;9.222;2023-10-19T06:42:37;12.33;;;8.27;;
12892;SDS011;6514;48.606;9.222;2023-10-19T06:45:06;10.80;;;9.50;;
12892;SDS011;6514;48.606;9.222;2023-10-19T06:47:35;10.47;;;8.67;;
12892;SDS011;6514;48.606;9.222;2023-10-19T06:50:03;9.57;;;8.40;;
12892;SDS011;6514;48.606;9.222;2023-10-19T06:52:32;11.20;;;8.77;;
12892;SDS011;6514;48.606;9.222;2023-10-19T06:55:01;9.23;;;7.53;;
12892;SDS011;6514;48.606;9.222;2023-10-19T06:57:29;10.23;;;7.80;;
12892;SDS011;6514;48.606;9.222;2023-10-19T06:59:56;9.33;;;7.40;;
12892;SDS011;6514;48.606;9.222;2023-10-19T07:02:24;8.10;;;6.30;;
12892;SDS011;6514;48.606;9.222;2023-10-19T07:04:51;7.50;;;5.90;;
12892;SDS011;6514;48.606;9.222;2023-10-19T07:07:18;7.63;;;6.50;;
12892;SDS011;6514;48.606;9.222;2023-10-19T07:09:45;6.77;;;6.03;;
12892;SDS011;6514;48.606;9.222;2023-10-19T07:12:11;8.40;;;7.27;;
12892;SDS011;6514;48.606;9.222;2023-10-19T07:14:38;10.17;;;8.63;;
12892;SDS011;6514;48.606;9.222;2023-10-19T07:17:06;10.37;;;8.03;;
12892;SDS011;6514;48.606;9.222;2023-10-19T07:19:34;9.40;;;7.07;;
12892;SDS011;6514;48.606;9.222;2023-10-19T07:22:01;11.23;;;8.00;;
12892;SDS011;6514;48.606;9.222;2023-10-19T07:24:29;9.00;;;7.40;;
12892;SDS011;6514;48.606;9.222;2023-10-19T07:26:56;8.77;;;7.00;;
12892;SDS011;6514;48.606;9.222;2023-10-19T07:29:30;7.70;;;6.73;;
12892;SDS011;6514;48.606;9.222;2023-10-19T07:31:58;8.17;;;6.47;;
12892;SDS011;6514;48.606;9.222;2023-10-19T07:34:25;7.87;;;6.40;;
12892;SDS011;6514;48.606;9.222;2023-10-19T07:36:55;6.87;;;5.40;;
12892;SDS011;6514;48.606;9.222;2023-10-19T07:39:24;6.67;;;5.97;;
12892;SDS011;6514;48.606;9.222;2023-10-19T07:41:54;10.77;;;6.50;;
12892;SDS011;6514;48.606;9.222;2023-10-19T07:44:21;8.60;;;7.13;;
12892;SDS011;6514;48.606;9.222;2023-10-19T07:46:48;6.90;;;6.20;;
12892;SDS011;6514;48.606;9.222;2023-10-19T07:49:15;8.20;;;6.07;;
12892;SDS011;6514;48.606;9.222;2023-10-19T07:51:44;6.83;;;5.47;;
12892;SDS011;6514;48.606;9.222;2023-10-19T07:54:13;7.20;;;6.03;;
12892;SDS011;6514;48.606;9.222;2023-10-19T07:56:41;6.77;;;5.80;;
12892;SDS011;6514;48.606;9.222;2023-10-19T07:59:08;6.60;;;5.40;;
12892;SDS011;6514;48.606;9.222;2023-10-19T08:01:37;8.30;;;6.63;;
12892;SDS011;6514;48.606;9.222;2023-10-19T08:04:04;7.00;;;5.87;;
12892;SDS011;6514;48.606;9.222;2023-10-19T08:06:31;6.77;;;6.00;;
12892;SDS011;6514;48.606;9.222;2023-10-19T08:08:58;7.80;;;5.70;;
12892;SDS011;6514;48.606;9.222;2023-10-19T08:11:26;5.87;;;5.27;;
12892;SDS011;6514;48.606;9.222;2023-10-19T08:13:53;6.07;;;5.17;;
12892;SDS011;6514;48.606;9.222;2023-10-19T08:16:20;7.10;;;5.60;;
12892;SDS011;6514;48.606;9.222;2023-10-19T08:18:47;5.87;;;5.27;;
12892;SDS011;6514;48.606;9.222;2023-10-19T08:21:17;5.80;;;5.23;;
12892;SDS011;6514;48.606;9.222;2023-10-19T08:23:44;7.07;;;5.53;;
12892;SDS011;6514;48.606;9.222;2023-10-19T08:26:12;7.83;;;6.13;;
12892;SDS011;6514;48.606;9.222;2023-10-19T08:28:41;7.30;;;6.40;;
12892;SDS011;6514;48.606;9.222;2023-10-19T08:31:08;6.47;;;5.73;;
12892;SDS011;6514;48.606;9.222;2023-10-19T08:33:36;6.27;;;5.00;;
12892;SDS011;6514;48.606;9.222;2023-10-19T08:36:04;6.17;;;4.90;;
12892;SDS011;6514;48.606;9.222;2023-10-19T08:38:31;6.40;;;5.13;;
12892;SDS011;6514;48.606;9.222;2023-10-19T08:41:00;5.20;;;4.40;;
12892;SDS011;6514;48.606;9.222;2023-10-19T08:43:28;5.60;;;5.00;;
12892;SDS011;6514;48.606;9.222;2023-10-19T08:46:00;6.33;;;5.43;;
12892;SDS011;6514;48.606;9.222;2023-10-19T08:48:28;6.63;;;5.77;;
12892;SDS011;6514;48.606;9.222;2023-10-19T08:51:00;6.77;;;5.40;;
12892;SDS011;6514;48.606;9.222;2023-10-19T08:53:29;5.80;;;5.20;;
12892;SDS011;6514;48.606;9.222;2023-10-19T08:55:56;5.50;;;4.90;;
12892;SDS011;6514;48.606;9.222;2023-10-19T08:58:29;4.73;;;4.30;;
12892;SDS011;6514;48.606;9.222;2023-10-19T09:00:56;5.43;;;4.93;;
12892;SDS011;6514;48.606;9.222;2023-10-19T09:03:24;4.97;;;4.57;;
12892;SDS011;6514;48.606;9.222;2023-10-19T09:05:51;6.37;;;4.90;;
12892;SDS011;6514;48.606;9.222;2023-10-19T09:08:19;6.37;;;4.60;;
12892;SDS011;6514;48.606;9.222;2023-10-19T09:10:47;5.30;;;4.80;;
12892;SDS011;6514;48.606;9.222;2023-10-19T09:13:17;34.30;;;24.93;;
12892;SDS011;6514;48.606;9.222;2023-10-19T09:15:44;9.43;;;7.47;;
12892;SDS011;6514;48.606;9.222;2023-10-19T09:18:12;7.83;;;5.20;;
12892;SDS011;6514;48.606;9.222;2023-10-19T09:20:41;6.37;;;5.40;;
12892;SDS011;6514;48.606;9.222;2023-10-19T09:23:17;5.87;;;5.27;;
12892;SDS011;6514;48.606;9.222;2023-10-19T09:25:46;4.80;;;4.17;;
12892;SDS011;6514;48.606;9.222;2023-10-19T09:28:13;6.73;;;5.00;;
12892;SDS011;6514;48.606;9.222;2023-10-19T09:30:40;9.43;;;5.90;;
12892;SDS011;6514;48.606;9.222;2023-10-19T09:33:09;11.80;;;8.37;;
12892;SDS011;6514;48.606;9.222;2023-10-19T09:35:38;8.97;;;6.97;;
12892;SDS011;6514;48.606;9.222;2023-10-19T09:38:10;7.43;;;6.20;;
12892;SDS011;6514;48.606;9.222;2023-10-19T09:40:37;12.27;;;8.17;;
12892;SDS011;6514;48.606;9.222;2023-10-19T09:43:07;7.60;;;6.07;;
12892;SDS011;6514;48.606;9.222;2023-10-19T09:45:41;5.63;;;4.47;;
12892;SDS011;6514;48.606;9.222;2023-10-19T09:48:15;6.23;;;4.83;;
12892;SDS011;6514;48.606;9.222;2023-10-19T09:50:45;6.40;;;5.03;;
12892;SDS011;6514;48.606;9.222;2023-10-19T09:53:20;6.67;;;4.83;;
12892;SDS011;6514;48.606;9.222;2023-10-19T09:55:49;4.93;;;4.50;;
12892;SDS011;6514;48.606;9.222;2023-10-19T09:58:20;6.10;;;4.77;;
12892;SDS011;6514;48.606;9.222;2023-10-19T10:00:52;5.47;;;4.57;;
12892;SDS011;6514;48.606;9.222;2023-10-19T10:06:12;5.60;;;4.63;;
12892;SDS011;6514;48.606;9.222;2023-10-19T10:08:40;5.47;;;4.77;;
12892;SDS011;6514;48.606;9.222;2023-10-19T10:11:21;5.87;;;4.87;;
12892;SDS011;6514;48.606;9.222;2023-10-19T10:13:51;7.43;;;5.03;;
12892;SDS011;6514;48.606;9.222;2023-10-19T10:16:19;5.30;;;4.77;;
12892;SDS011;6514;48.606;9.222;2023-10-19T10:18:49;5.37;;;4.87;;
12892;SDS011;6514;48.606;9.222;2023-10-19T10:21:26;6.17;;;4.80;;
12892;SDS011;6514;48.606;9.222;2023-10-19T10:23:55;5.20;;;4.67;;
12892;SDS011;6514;48.606;9.222;2023-10-19T10:26:24;4.97;;;4.57;;
12892;SDS011;6514;48.606;9.222;2023-10-19T10:29:07;5.63;;;4.67;;
12892;SDS011;6514;48.606;9.222;2023-10-19T10:31:40;5.90;;;5.07;;
12892;SDS011;6514;48.606;9.222;2023-10-19T10:34:08;5.17;;;4.43;;
12892;SDS011;6514;48.606;9.222;2023-10-19T10:39:25;5.23;;;4.20;;
12892;SDS011;6514;48.606;9.222;2023-10-19T10:41:55;4.97;;;4.47;;
12892;SDS011;6514;48.606;9.222;2023-10-19T10:44:34;5.90;;;4.20;;
12892;SDS011;6514;48.606;9.222;2023-10-19T10:47:02;5.23;;;4.73;;
12892;SDS011;6514;48.606;9.222;2023-10-19T10:49:31;6.87;;;5.13;;
12892;SDS011;6514;48.606;9.222;2023-10-19T10:51:59;7.10;;;5.07;;
12892;SDS011;6514;48.606;9.222;2023-10-19T10:54:26;5.73;;;5.23;;
12892;SDS011;6514;48.606;9.222;2023-10-19T10:56:53;6.67;;;5.00;;
12892;SDS011;6514;48.606;9.222;2023-10-19T10:59:20;6.17;;;5.37;;
12892;SDS011;6514;48.606;9.222;2023-10-19T11:01:47;5.20;;;4.70;;
12892;SDS011;6514;48.606;9.222;2023-10-19T11:04:14;7.83;;;5.50;;
12892;SDS011;6514;48.606;9.222;2023-10-19T11:06:48;5.47;;;4.87;;
12892;SDS011;6514;48.606;9.222;2023-10-19T11:09:17;7.47;;;5.43;;
12892;SDS011;6514;48.606;9.222;2023-10-19T11:11:47;5.60;;;4.87;;
12892;SDS011;6514;48.606;9.222;2023-10-19T11:14:17;6.27;;;4.97;;
12892;SDS011;6514;48.606;9.222;2023-10-19T11:16:44;5.20;;;4.70;;
12892;SDS011;6514;48.606;9.222;2023-10-19T11:19:11;5.50;;;5.00;;
12892;SDS011;6514;48.606;9.222;2023-10-19T11:21:37;6.57;;;5.33;;
12892;SDS011;6514;48.606;9.222;2023-10-19T11:24:25;5.30;;;4.80;;
12892;SDS011;6514;48.606;9.222;2023-10-19T11:26:53;6.47;;;5.37;;
12892;SDS011;6514;48.606;9.222;2023-10-19T11:29:20;6.73;;;5.70;;
12892;SDS011;6514;48.606;9.222;2023-10-19T11:31:56;5.50;;;5.00;;
12892;SDS011;6514;48.606;9.222;2023-10-19T11:34:23;6.77;;;5.33;;
12892;SDS011;6514;48.606;9.222;2023-10-19T11:36:52;7.07;;;5.57;;
12892;SDS011;6514;48.606;9.222;2023-10-19T11:39:21;5.53;;;5.03;;
12892;SDS011;6514;48.606;9.222;2023-10-19T11:41:50;5.30;;;4.80;;
12892;SDS011;6514;48.606;9.222;2023-10-19T11:44:16;5.37;;;4.87;;
12892;SDS011;6514;48.606;9.222;2023-10-19T11:46:44;7.90;;;7.00;;
12892;SDS011;6514;48.606;9.222;2023-10-19T11:49:11;6.33;;;5.40;;
12892;SDS011;6514;48.606;9.222;2023-10-19T11:51:38;9.53;;;8.63;;
12892;SDS011;6514;48.606;9.222;2023-10-19T11:54:05;6.80;;;6.10;;
12892;SDS011;6514;48.606;9.222;2023-10-19T11:56:32;9.33;;;7.67;;
12892;SDS011;6514;48.606;9.222;2023-10-19T11:59:01;7.57;;;6.87;;
12892;SDS011;6514;48.606;9.222;2023-10-19T12:01:28;6.73;;;6.03;;
12892;SDS011;6514;48.606;9.222;2023-10-19T12:03:54;7.00;;;6.30;;
12892;SDS011;6514;48.606;9.222;2023-10-19T12:06:21;9.80;;;6.33;;
12892;SDS011;6514;48.606;9.222;2023-10-19T12:08:48;7.50;;;6.17;;
12892;SDS011;6514;48.606;9.222;2023-10-19T12:11:15;7.37;;;5.83;;
12892;SDS011;6514;48.606;9.222;2023-10-19T12:13:44;6.93;;;6.20;;
12892;SDS011;6514;48.606;9.222;2023-10-19T12:16:13;6.37;;;5.73;;
12892;SDS011;6514;48.606;9.222;2023-10-19T12:18:40;8.30;;;6.93;;
12892;SDS011;6514;48.606;9.222;2023-10-19T12:21:08;8.03;;;7.03;;
12892;SDS011;6514;48.606;9.222;2023-10-19T12:23:36;9.13;;;6.27;;
12892;SDS011;6514;48.606;9.222;2023-10-19T12:26:05;9.83;;;6.23;;
12892;SDS011;6514;48.606;9.222;2023-10-19T12:28:36;6.67;;;5.97;;
12892;SDS011;6514;48.606;9.222;2023-10-19T12:31:03;10.70;;;6.33;;
12892;SDS011;6514;48.606;9.222;2023-10-19T12:33:35;8.83;;;7.93;;
12892;SDS011;6514;48.606;9.222;2023-10-19T12:36:03;10.33;;;9.03;;
12892;SDS011;6514;48.606;9.222;2023-10-19T12:38:48;13.63;;;9.17;;
12892;SDS011;6514;48.606;9.222;2023-10-19T12:41:16;11.80;;;10.57;;
12892;SDS011;6514;48.606;9.222;2023-10-19T12:43:43;13.27;;;10.73;;
12892;SDS011;6514;48.606;9.222;2023-10-19T12:46:11;11.13;;;8.20;;
12892;SDS011;6514;48.606;9.222;2023-10-19T12:48:40;10.90;;;7.87;;
12892;SDS011;6514;48.606;9.222;2023-10-19T12:51:07;9.57;;;7.53;;
12892;SDS011;6514;48.606;9.222;2023-10-19T12:53:36;11.00;;;8.53;;
12892;SDS011;6514;48.606;9.222;2023-10-19T12:56:04;10.00;;;8.20;;
12892;SDS011;6514;48.606;9.222;2023-10-19T12:58:31;10.17;;;7.60;;
12892;SDS011;6514;48.606;9.222;2023-10-19T13:00:57;8.57;;;6.67;;
12892;SDS011;6514;48.606;9.222;2023-10-19T13:03:25;8.27;;;7.30;;
12892;SDS011;6514;48.606;9.222;2023-10-19T13:05:54;8.70;;;7.30;;
12892;SDS011;6514;48.606;9.222;2023-10-19T13:08:23;8.03;;;7.23;;
12892;SDS011;6514;48.606;9.222;2023-10-19T13:10:52;7.27;;;6.53;;
12892;SDS011;6514;48.606;9.222;2023-10-19T13:13:20;6.83;;;6.13;;
12892;SDS011;6514;48.606;9.222;2023-10-19T13:15:49;8.27;;;7.37;;
12892;SDS011;6514;48.606;9.222;2023-10-19T13:18:16;6.60;;;5.43;;
12892;SDS011;6514;48.606;9.222;2023-10-19T13:20:47;7.00;;;5.20;;
12892;SDS011;6514;48.606;9.222;2023-10-19T13:23:16;5.00;;;4.50;;
12892;SDS011;6514;48.606;9.222;2023-10-19T13:25:47;4.83;;;4.30;;
12892;SDS011;6514;48.606;9.222;2023-10-19T13:28:18;5.37;;;4.87;;
12892;SDS011;6514;48.606;9.222;2023-10-19T13:30:46;7.33;;;5.40;;
12892;SDS011;6514;48.606;9.222;2023-10-19T13:33:15;5.00;;;4.53;;
12892;SDS011;6514;48.606;9.222;2023-10-19T13:35:43;5.17;;;4.33;;
12892;SDS011;6514;48.606;9.222;2023-10-19T13:38:11;5.13;;;4.63;;
12892;SDS011;6514;48.606;9.222;2023-10-19T13:40:40;5.67;;;4.70;;
12892;SDS011;6514;48.606;9.222;2023-10-19T13:43:08;4.63;;;4.23;;
12892;SDS011;6514;48.606;9.222;2023-10-19T13:45:39;5.83;;;5.00;;
12892;SDS011;6514;48.606;9.222;2023-10-19T13:48:08;4.83;;;4.43;;
12892;SDS011;6514;48.606;9.222;2023-10-19T13:50:40;7.53;;;4.73;;
12892;SDS011;6514;48.606;9.222;2023-10-19T13:53:08;5.30;;;4.00;;
12892;SDS011;6514;48.606;9.222;2023-10-19T13:55:35;4.40;;;4.00;;
12892;SDS011;6514;48.606;9.222;2023-10-19T13:58:04;4.37;;;3.63;;
12892;SDS011;6514;48.606;9.222;2023-10-19T14:00:31;7.20;;;5.77;;
12892;SDS011;6514;48.606;9.222;2023-10-19T14:03:05;9.23;;;7.83;;
12892;SDS011;6514;48.606;9.222;2023-10-19T14:05:35;9.93;;;7.53;;
12892;SDS011;6514;48.606;9.222;2023-10-19T14:08:03;8.30;;;7.23;;
12892;SDS011;6514;48.606;9.222;2023-10-19T14:10:30;9.60;;;8.50;;
12892;SDS011;6514;48.606;9.222;2023-10-19T14:12:57;8.63;;;7.30;;
12892;SDS011;6514;48.606;9.222;2023-10-19T14:15:25;8.50;;;7.00;;
12892;SDS011;6514;48.606;9.222;2023-10-19T14:17:54;8.80;;;7.90;;
12892;SDS011;6514;48.606;9.222;2023-10-19T14:20:23;7.03;;;6.20;;
12892;SDS011;6514;48.606;9.222;2023-10-19T14:22:50;6.13;;;5.23;;
12892;SDS011;6514;48.606;9.222;2023-10-19T14:25:18;7.33;;;5.40;;
12892;SDS011;6514;48.606;9.222;2023-10-19T14:27:47;8.70;;;6.80;;
12892;SDS011;6514;48.606;9.222;2023-10-19T14:30:15;8.83;;;7.10;;
12892;SDS011;6514;48.606;9.222;2023-10-19T14:32:45;9.37;;;6.83;;
12892;SDS011;6514;48.606;9.222;2023-10-19T14:35:13;6.57;;;5.87;;
12892;SDS011;6514;48.606;9.222;2023-10-19T14:37:41;6.73;;;5.90;;
12892;SDS011;6514;48.606;9.222;2023-10-19T14:40:10;6.10;;;5.50;;
12892;SDS011;6514;48.606;9.222;2023-10-19T14:42:37;11.50;;;7.80;;
12892;SDS011;6514;48.606;9.222;2023-10-19T14:45:06;10.43;;;7.47;;
12892;SDS011;6514;48.606;9.222;2023-10-19T14:47:35;11.37;;;8.33;;
12892;SDS011;6514;48.606;9.222;2023-10-19T14:50:07;11.07;;;7.33;;
12892;SDS011;6514;48.606;9.222;2023-10-19T14:52:38;8.40;;;7.10;;
12892;SDS011;6514;48.606;9.222;2023-10-19T14:55:06;8.63;;;7.00;;
12892;SDS011;6514;48.606;9.222;2023-10-19T14:57:34;8.00;;;6.50;;
12892;SDS011;6514;48.606;9.222;2023-10-19T15:00:04;10.37;;;7.50;;
12892;SDS011;6514;48.606;9.222;2023-10-19T15:02:40;9.87;;;8.10;;
12892;SDS011;6514;48.606;9.222;2023-10-19T15:05:10;9.13;;;8.10;;
12892;SDS011;6514;48.606;9.222;2023-10-19T15:07:39;8.97;;;8.07;;
12892;SDS011;6514;48.606;9.222;2023-10-19T15:10:09;8.83;;;7.43;;
12892;SDS011;6514;48.606;9.222;2023-10-19T15:12:37;7.30;;;6.60;;